createdAt,value
2022-10-02T00:03:24.627Z,0.93
2022-10-02T00:06:39.613Z,0.50
2022-10-02T00:09:56.607Z,0.50
2022-10-02T00:13:02.499Z,0.70
2022-10-02T00:16:11.019Z,0.70
2022-10-02T00:19:17.672Z,0.87
2022-10-02T00:22:48.698Z,0.83
2022-10-02T00:26:05.339Z,0.70
2022-10-02T00:29:25.670Z,0.50
2022-10-02T00:32:54.471Z,0.50
2022-10-02T00:36:09.440Z,0.50
2022-10-02T00:39:25.019Z,0.50
2022-10-02T00:43:07.385Z,0.50
2022-10-02T00:46:12.105Z,0.60
2022-10-02T00:49:20.965Z,0.50
2022-10-02T00:52:47.225Z,0.30
2022-10-02T00:56:12.923Z,0.47
2022-10-02T01:00:04.768Z,0.40
2022-10-02T01:03:18.231Z,0.50
2022-10-02T01:06:22.623Z,0.40
2022-10-02T01:09:25.710Z,0.50
2022-10-02T01:12:28.677Z,0.30
2022-10-02T01:15:37.690Z,0.40
2022-10-02T01:18:39.790Z,0.40
2022-10-02T01:21:49.744Z,0.40
2022-10-02T01:24:59.336Z,0.30
2022-10-02T01:28:01.738Z,0.50
2022-10-02T01:31:10.523Z,0.40
2022-10-02T01:34:12.659Z,0.30
2022-10-02T01:37:15.216Z,0.30
2022-10-02T01:40:30.158Z,0.30
2022-10-02T01:43:57.292Z,0.30
2022-10-02T01:47:12.698Z,0.50
2022-10-02T01:50:26.341Z,0.33
2022-10-02T01:53:56.701Z,0.33
2022-10-02T01:57:25.371Z,0.40
2022-10-02T02:00:40.092Z,0.50
2022-10-02T02:03:53.376Z,0.30
2022-10-02T02:07:03.485Z,0.23
2022-10-02T02:10:22.730Z,0.40
2022-10-02T02:13:43.225Z,0.50
2022-10-02T02:16:53.584Z,0.40
2022-10-02T02:20:07.106Z,0.40
2022-10-02T02:23:18.016Z,0.40
2022-10-02T02:26:20.684Z,0.37
2022-10-02T02:29:26.443Z,0.50
2022-10-02T02:32:35.235Z,0.37
2022-10-02T02:35:48.021Z,0.30
2022-10-02T02:38:55.396Z,0.40
2022-10-02T02:42:03.735Z,0.30
2022-10-02T02:45:18.016Z,0.40
2022-10-02T02:48:30.854Z,0.50
2022-10-02T02:51:41.227Z,0.30
2022-10-02T02:54:49.075Z,0.37
2022-10-02T02:58:02.850Z,0.43
2022-10-02T03:01:04.943Z,0.40
2022-10-02T03:04:07.525Z,0.50
2022-10-02T03:07:14.306Z,0.30
2022-10-02T03:10:23.780Z,0.30
2022-10-02T03:13:51.455Z,0.50
2022-10-02T03:17:19.869Z,0.40
2022-10-02T03:20:53.134Z,0.40
2022-10-02T03:23:58.083Z,0.30
2022-10-02T03:27:10.510Z,0.50
2022-10-02T03:30:14.746Z,0.43
2022-10-02T03:33:17.732Z,0.43
2022-10-02T03:36:21.336Z,0.30
2022-10-02T03:39:25.939Z,0.30
2022-10-02T03:42:32.474Z,0.40
2022-10-02T03:45:51.671Z,0.40
2022-10-02T03:48:56.870Z,0.40
2022-10-02T03:51:58.893Z,0.30
2022-10-02T03:55:20.823Z,0.20
2022-10-02T03:58:22.901Z,0.40
2022-10-02T04:01:33.695Z,0.30
2022-10-02T04:04:52.217Z,0.40
2022-10-02T04:07:58.393Z,0.47
2022-10-02T04:11:21.468Z,0.30
2022-10-02T04:14:33.965Z,0.40
2022-10-02T04:17:50.289Z,0.30
2022-10-02T04:21:00.217Z,0.40
2022-10-02T04:24:10.053Z,0.30
2022-10-02T04:27:18.085Z,0.40
2022-10-02T04:30:20.611Z,0.50
2022-10-02T04:33:25.049Z,0.63
2022-10-02T04:36:41.212Z,0.50
2022-10-02T04:40:06.815Z,0.57
2022-10-02T04:43:32.779Z,0.60
2022-10-02T04:46:40.622Z,0.57
2022-10-02T04:50:00.940Z,0.47
2022-10-02T04:53:41.577Z,0.60
2022-10-02T04:57:40.777Z,0.70
2022-10-02T05:00:54.340Z,0.40
2022-10-02T05:04:04.245Z,0.57
2022-10-02T05:07:53.927Z,0.70
2022-10-02T05:11:33.248Z,0.50
2022-10-02T05:15:05.827Z,0.70
2022-10-02T05:18:29.814Z,0.43
2022-10-02T05:21:50.414Z,0.60
2022-10-02T05:25:01.604Z,0.80
2022-10-02T05:28:17.135Z,0.60
2022-10-02T05:31:56.162Z,0.60
2022-10-02T05:35:22.512Z,0.67
2022-10-02T05:38:55.054Z,0.73
2022-10-02T05:42:02.791Z,0.63
2022-10-02T05:45:19.625Z,0.97
2022-10-02T05:48:46.670Z,0.90
2022-10-02T05:52:01.135Z,1.30
2022-10-02T05:55:40.588Z,0.83
2022-10-02T05:58:51.936Z,0.90
2022-10-02T06:01:57.927Z,0.80
2022-10-02T06:05:27.921Z,1.00
2022-10-02T06:08:53.091Z,0.70
2022-10-02T06:12:31.094Z,0.90
2022-10-02T06:16:03.747Z,1.40
2022-10-02T06:19:19.940Z,0.87
2022-10-02T06:22:29.987Z,1.20
2022-10-02T06:25:43.751Z,1.57
2022-10-02T06:28:55.101Z,0.90
2022-10-02T06:32:02.797Z,1.00
2022-10-02T06:35:12.259Z,1.10
2022-10-02T06:38:45.646Z,0.83
2022-10-02T06:41:54.501Z,0.90
2022-10-02T06:45:05.070Z,1.00
2022-10-02T06:48:12.892Z,0.70
2022-10-02T06:51:45.601Z,1.00
2022-10-02T06:55:02.232Z,0.90
2022-10-02T06:58:30.417Z,0.60
2022-10-02T07:01:57.257Z,1.00
2022-10-02T07:05:11.623Z,0.90
2022-10-02T07:08:37.531Z,1.10
2022-10-02T07:11:48.885Z,0.80
2022-10-02T07:15:31.652Z,1.03
2022-10-02T07:18:33.467Z,0.97
2022-10-02T07:21:35.337Z,0.90
2022-10-02T07:24:48.415Z,1.07
2022-10-02T07:27:58.977Z,0.93
2022-10-02T07:31:39.170Z,0.80
2022-10-02T07:34:52.066Z,0.97
2022-10-02T07:38:13.411Z,0.90
2022-10-02T07:41:36.781Z,0.80
2022-10-02T07:45:07.267Z,0.73
2022-10-02T07:48:09.198Z,0.83
2022-10-02T07:51:53.740Z,1.00
2022-10-02T07:55:19.098Z,0.70
2022-10-02T07:58:20.964Z,0.70
2022-10-02T08:01:36.636Z,1.07
2022-10-02T08:04:39.618Z,0.77
2022-10-02T08:07:42.074Z,0.70
2022-10-02T08:10:47.464Z,1.00
2022-10-02T08:14:18.487Z,0.90
2022-10-02T08:17:46.259Z,0.67
2022-10-02T08:20:49.543Z,0.90
2022-10-02T08:23:59.810Z,0.80
2022-10-02T08:27:09.538Z,0.70
2022-10-02T08:30:15.871Z,0.60
2022-10-02T08:33:23.156Z,0.67
2022-10-02T08:36:49.346Z,0.60
2022-10-02T08:40:09.911Z,0.73
2022-10-02T08:43:24.288Z,0.77
2022-10-02T08:46:47.592Z,0.60
2022-10-02T08:50:11.813Z,0.60
2022-10-02T08:53:38.907Z,0.70
2022-10-02T08:56:49.489Z,0.70
2022-10-02T09:00:09.505Z,0.80
2022-10-02T09:03:45.824Z,0.70
2022-10-02T09:07:28.293Z,0.77
2022-10-02T09:10:48.553Z,0.80
2022-10-02T09:14:10.345Z,0.60
2022-10-02T09:17:33.923Z,0.70
2022-10-02T09:21:15.868Z,0.70
2022-10-02T09:24:23.817Z,0.63
2022-10-02T09:28:07.060Z,0.60
2022-10-02T09:31:30.650Z,0.77
2022-10-02T09:34:39.714Z,0.80
2022-10-02T09:38:11.287Z,0.57
2022-10-02T09:41:31.407Z,0.70
2022-10-02T09:45:03.429Z,0.77
2022-10-02T09:49:04.048Z,0.70
2022-10-02T09:52:45.477Z,0.73
2022-10-02T09:55:59.508Z,0.70
2022-10-02T09:59:04.096Z,0.73
2022-10-02T10:02:48.462Z,0.70
2022-10-02T10:06:12.066Z,0.60
2022-10-02T10:09:41.934Z,0.50
2022-10-02T10:13:21.139Z,0.80
2022-10-02T10:16:53.370Z,0.70
2022-10-02T10:20:34.523Z,0.90
2022-10-02T10:24:24.152Z,0.70
2022-10-02T10:27:49.323Z,0.90
2022-10-02T10:31:21.795Z,0.93
2022-10-02T10:34:35.625Z,0.60
2022-10-02T10:38:14.795Z,0.60
2022-10-02T10:41:43.219Z,0.87
2022-10-02T10:44:57.696Z,0.80
2022-10-02T10:48:20.803Z,0.60
2022-10-02T10:51:48.853Z,0.80
2022-10-02T10:55:18.706Z,0.70
2022-10-02T10:58:59.273Z,0.70
2022-10-02T11:02:19.914Z,0.80
2022-10-02T11:06:03.883Z,0.53
2022-10-02T11:09:14.725Z,0.97
2022-10-02T11:12:54.188Z,0.60
2022-10-02T11:16:07.477Z,0.80
2022-10-02T11:19:09.442Z,0.80
2022-10-02T11:22:38.436Z,0.70
2022-10-02T11:26:19.162Z,0.53
2022-10-02T11:29:36.474Z,0.60
2022-10-02T11:33:05.366Z,0.43
2022-10-02T11:36:13.199Z,0.60
2022-10-02T11:39:41.405Z,0.50
2022-10-02T11:43:11.646Z,0.47
2022-10-02T11:46:37.368Z,0.40
2022-10-02T11:49:53.497Z,0.77
2022-10-02T11:53:42.062Z,0.50
2022-10-02T11:57:19.484Z,0.50
2022-10-02T12:00:56.645Z,0.40
2022-10-02T12:04:13.565Z,0.60
2022-10-02T12:07:30.472Z,0.83
2022-10-02T12:10:47.706Z,0.80
2022-10-02T12:14:18.827Z,0.43
2022-10-02T12:17:32.879Z,0.60
2022-10-02T12:21:10.933Z,0.53
2022-10-02T12:24:38.496Z,0.47
2022-10-02T12:28:02.873Z,0.80
2022-10-02T12:31:14.560Z,0.63
2022-10-02T12:34:35.795Z,0.93
2022-10-02T12:37:56.916Z,0.50
2022-10-02T12:41:35.782Z,0.77
2022-10-02T12:45:11.841Z,0.63
2022-10-02T12:48:36.274Z,0.40
2022-10-02T12:51:57.329Z,0.47
2022-10-02T12:55:46.727Z,0.40
2022-10-02T12:59:23.313Z,0.47
2022-10-02T13:03:00.437Z,0.80
2022-10-02T13:06:24.599Z,0.50
2022-10-02T13:09:45.455Z,0.53
2022-10-02T13:13:16.116Z,0.60
2022-10-02T13:16:20.669Z,0.60
2022-10-02T13:19:38.995Z,0.60
2022-10-02T13:22:52.976Z,0.87
2022-10-02T13:26:16.357Z,0.70
2022-10-02T13:29:33.215Z,0.50
2022-10-02T13:32:47.402Z,0.70
2022-10-02T13:36:17.365Z,0.50
2022-10-02T13:39:34.549Z,0.50
2022-10-02T13:42:52.784Z,0.53
2022-10-02T13:45:57.599Z,0.63
2022-10-02T13:49:14.543Z,0.47
2022-10-02T13:52:33.009Z,0.40
2022-10-02T13:55:47.171Z,0.40
2022-10-02T13:59:16.069Z,0.50
2022-10-02T14:02:53.113Z,0.50
2022-10-02T14:06:16.650Z,0.40
2022-10-02T14:09:48.462Z,0.50
2022-10-02T14:12:55.675Z,0.50
2022-10-02T14:16:14.602Z,0.60
2022-10-02T14:19:41.157Z,0.50
2022-10-02T14:22:49.101Z,0.50
2022-10-02T14:26:35.775Z,0.40
2022-10-02T14:29:45.860Z,0.60
2022-10-02T14:33:09.062Z,0.50
2022-10-02T14:36:28.992Z,0.40
2022-10-02T14:39:42.263Z,0.50
2022-10-02T14:43:08.196Z,0.50
2022-10-02T14:46:38.274Z,0.40
2022-10-02T14:50:03.960Z,0.40
2022-10-02T14:53:32.883Z,0.70
2022-10-02T14:56:57.672Z,0.57
2022-10-02T15:00:17.774Z,0.40
2022-10-02T15:03:25.461Z,0.40
2022-10-02T15:06:33.265Z,0.57
2022-10-02T15:10:07.278Z,0.70
2022-10-02T15:13:44.416Z,0.53
2022-10-02T15:17:13.685Z,0.40
2022-10-02T15:20:30.118Z,0.73
2022-10-02T15:23:32.028Z,0.50
2022-10-02T15:26:46.854Z,0.30
2022-10-02T15:30:17.587Z,0.70
2022-10-02T15:33:42.633Z,0.50
2022-10-02T15:37:06.185Z,0.50
2022-10-02T15:40:09.003Z,0.50
2022-10-02T15:43:16.673Z,0.40
2022-10-02T15:46:37.735Z,0.70
2022-10-02T15:49:57.611Z,0.50
2022-10-02T15:53:26.586Z,0.47
2022-10-02T15:56:39.770Z,0.30
2022-10-02T15:59:56.837Z,0.40
2022-10-02T16:03:22.549Z,0.40
2022-10-02T16:06:58.301Z,0.50
2022-10-02T16:10:12.361Z,0.60
2022-10-02T16:13:42.416Z,0.60
2022-10-02T16:17:16.865Z,0.43
2022-10-02T16:20:18.901Z,0.67
2022-10-02T16:23:45.460Z,0.40
2022-10-02T16:27:09.388Z,0.30
2022-10-02T16:30:17.312Z,0.50
2022-10-02T16:33:21.597Z,0.40
2022-10-02T16:36:44.591Z,0.40
2022-10-02T16:40:03.399Z,0.60
2022-10-02T16:43:44.937Z,0.30
2022-10-02T16:46:52.109Z,0.20
2022-10-02T16:50:03.133Z,0.47
2022-10-02T16:53:11.982Z,0.40
2022-10-02T16:56:19.353Z,0.47
2022-10-02T16:59:30.346Z,0.20
2022-10-02T17:02:38.076Z,0.20
2022-10-02T17:05:46.291Z,0.40
2022-10-02T17:09:00.349Z,0.43
2022-10-02T17:12:27.716Z,0.30
2022-10-02T17:16:18.848Z,0.43
2022-10-02T17:19:28.128Z,0.40
2022-10-02T17:22:52.669Z,0.50
2022-10-02T17:26:07.582Z,0.40
2022-10-02T17:29:26.748Z,0.30
2022-10-02T17:32:46.647Z,0.40
2022-10-02T17:35:54.422Z,0.30
2022-10-02T17:38:56.485Z,0.60
2022-10-02T17:42:22.700Z,0.30
2022-10-02T17:45:30.408Z,0.30
2022-10-02T17:48:45.250Z,0.33
2022-10-02T17:51:56.559Z,0.20
2022-10-02T17:55:40.935Z,0.50
2022-10-02T18:04:03.386Z,0.40
2022-10-02T18:07:05.438Z,0.20
2022-10-02T18:10:18.692Z,0.23
2022-10-02T18:13:23.892Z,0.40
2022-10-02T18:16:48.567Z,0.30
2022-10-02T18:20:06.492Z,0.20
2022-10-02T18:23:43.913Z,0.30
2022-10-02T18:26:54.874Z,0.20
2022-10-02T18:30:15.659Z,0.50
2022-10-02T18:33:38.559Z,0.23
2022-10-02T18:37:01.185Z,0.40
2022-10-02T18:40:22.747Z,0.30
2022-10-02T18:43:40.293Z,0.30
2022-10-02T18:47:02.903Z,0.33
2022-10-02T18:50:40.213Z,0.30
2022-10-02T18:54:15.792Z,0.20
2022-10-02T18:57:47.416Z,0.37
2022-10-02T19:01:19.325Z,0.30
2022-10-02T19:04:46.329Z,0.30
2022-10-02T19:07:55.117Z,0.20
2022-10-02T19:10:57.239Z,0.30
2022-10-02T19:14:03.742Z,0.20
2022-10-02T19:17:22.099Z,0.30
2022-10-02T19:21:08.470Z,0.30
2022-10-02T19:24:15.465Z,0.30
2022-10-02T19:27:27.508Z,0.30
2022-10-02T19:30:32.337Z,0.30
2022-10-02T19:33:46.218Z,0.20
2022-10-02T19:36:52.190Z,0.30
2022-10-02T19:39:58.101Z,0.20
2022-10-02T19:43:24.782Z,0.30
2022-10-02T19:46:53.474Z,0.20
2022-10-02T19:49:58.081Z,0.30
2022-10-02T19:53:07.032Z,0.20
2022-10-02T19:56:15.958Z,0.33
2022-10-02T19:59:24.256Z,0.27
2022-10-02T20:02:37.641Z,0.30
2022-10-02T20:05:42.147Z,0.20
2022-10-02T20:08:58.035Z,0.30
2022-10-02T20:12:11.284Z,0.27
2022-10-02T20:15:40.257Z,0.40
2022-10-02T20:18:42.508Z,0.37
2022-10-02T20:21:57.303Z,0.30
2022-10-02T20:25:14.751Z,0.40
2022-10-02T20:28:25.361Z,0.20
2022-10-02T20:31:33.067Z,0.30
2022-10-02T20:34:45.394Z,0.20
2022-10-02T20:37:52.215Z,0.30
2022-10-02T20:40:57.746Z,0.30
2022-10-02T20:44:07.238Z,0.30
2022-10-02T20:47:09.164Z,0.30
2022-10-02T20:50:32.956Z,0.20
2022-10-02T20:54:08.577Z,0.33
2022-10-02T20:57:49.613Z,0.30
2022-10-02T21:01:18.754Z,0.30
2022-10-02T21:04:32.925Z,0.30
2022-10-02T21:07:43.698Z,0.30
2022-10-02T21:11:22.566Z,0.40
2022-10-02T21:14:54.790Z,0.40
2022-10-02T21:18:30.696Z,0.30
2022-10-02T21:21:52.809Z,0.20
2022-10-02T21:25:18.337Z,0.30
2022-10-02T21:28:32.118Z,0.30
2022-10-02T21:31:50.707Z,0.33
2022-10-02T21:35:27.551Z,0.30
2022-10-02T21:38:51.545Z,0.40
2022-10-02T21:42:21.670Z,0.40
2022-10-02T21:45:42.024Z,0.40
2022-10-02T21:49:29.093Z,0.37
2022-10-02T21:53:01.705Z,0.40
2022-10-02T21:56:09.239Z,0.30
2022-10-02T21:59:26.218Z,0.30
2022-10-02T22:03:04.836Z,0.60
2022-10-02T22:06:30.671Z,0.40
2022-10-02T22:09:50.245Z,0.30
2022-10-02T22:13:18.338Z,0.40
2022-10-02T22:16:45.359Z,0.50
2022-10-02T22:20:09.450Z,0.77
2022-10-02T22:23:11.290Z,0.40
2022-10-02T22:26:47.122Z,0.40
2022-10-02T22:29:53.216Z,0.40
2022-10-02T22:33:13.304Z,0.37
2022-10-02T22:36:43.087Z,0.90
2022-10-02T22:39:53.835Z,0.50
2022-10-02T22:43:07.044Z,0.40
2022-10-02T22:46:47.641Z,0.40
2022-10-02T22:49:56.511Z,0.70
2022-10-02T22:53:12.244Z,0.67
2022-10-02T22:56:51.399Z,0.60
2022-10-02T23:00:00.685Z,0.60
2022-10-02T23:03:13.364Z,0.60
2022-10-02T23:06:41.551Z,0.63
2022-10-02T23:10:00.717Z,0.67
2022-10-02T23:13:11.757Z,0.97
2022-10-02T23:16:23.570Z,0.70
2022-10-02T23:19:45.060Z,0.73
2022-10-02T23:22:59.812Z,0.70
2022-10-02T23:26:16.897Z,0.97
2022-10-02T23:29:52.405Z,1.00
2022-10-02T23:33:07.052Z,0.80
2022-10-02T23:36:24.555Z,0.80
2022-10-02T23:39:35.664Z,0.60
2022-10-02T23:42:47.904Z,0.60
2022-10-02T23:45:58.575Z,0.87
2022-10-02T23:49:01.967Z,0.77
2022-10-02T23:52:35.416Z,0.90
2022-10-02T23:55:52.648Z,0.90
2022-10-02T23:59:09.771Z,0.80
